Asherton, TX

9:05 PM CDT on August 20, 2014 (GMT -0500)
Faith Ranch AP, Carrizo Sprin | Change Station
CLOSE
Current Station
Airport
Location: Faith Ranch AP, Carrizo Sprin,
Elevation: 774 ft
Nearby Weather Stations

Elev 774 ft 28.21 °N, 100.02 °W | Updated -2979 second ago

Mostly Cloudy
Mostly Cloudy
95 °F
Feels Like 96 °F
N
6
Wind Variable Wind from SSE

Today
High -- | Low -- °F
--% Chance of Precip.
Yesterday
High -- | Low -- °F
Precip. -- in
7:11 AM 8:13 PM
Waning Crescent, 17% visible
Pressure 29.86 in
Visibility 10.0 miles
Clouds Mostly Cloudy 8000 ft
Heat Index 96 °F
Dew Point 63 °F
Humidity 34%
Rainfall 0.00 in
Snow Depth Not available.
UV 0 out of 12
Pollen 8.10 out of 12
Air Quality Not available.
Flu Activity Not available.
METAR KFTN 210255Z AUTO 15005KT 10SM BKN080 35/17 A2986 RMK AO1

More Conditions Fewer Conditions

Pressure 29.86 in
Visibility 10.0 miles
Clouds Mostly Cloudy 8000 ft
Heat Index 96 °F
Dew Point 63 °F
Humidity 34%
Rainfall 0.00 in
Snow Depth Not available.
UV 0 out of 12
Pollen 8.10 out of 12
Air Quality Not available.
Flu Activity Not available.
METAR KFTN 210255Z AUTO 15005KT 10SM BKN080 35/17 A2986 RMK AO1

More Conditions Fewer Conditions

Nowcast | as of 8:46 PM CDT on August 20, 2014

Through 11 PM...isolated showers and thunderstorms will move north across portions of the Central Hill country and the Rio Grande plains. Rainfall amounts will be light with most locations receiving one tenth of an inch or less. In the stronger storms rainfall amounts could reach one quarter inch. The showers should dissipate by midnight.

×

10-Day Weather Forecast

Almanac

Astronomy

Aug. 20, 2014 Rise Set
Actual Time 7:11 AM CDT 8:13 PM CDT
Civil Twilight 6:46 AM CDT 8:37 PM CDT
Nautical Twilight 6:17 AM CDT 9:06 PM CDT
Astronomical Twilight 5:47 AM CDT 9:36 PM CDT
Moon 3:01 AM CDT (8/20) 4:51 PM CDT (8/20)
Length of Visible Light 13h 50m
Length of Day
13h 01m
Tomorrow will be 1m 32s shorter.
Waning Crescent, 17% of the Moon is Illuminated
Today
Waning Crescent
Aug 25
New
Sep 2
First Quarter
Sep 8
Full
Sep 15
Last Quarter

Today's Extremes

State Highs State Lows

Community

WunderPhotos

Upload Photos

1,745,853 photos uploaded!

WunderBlogs® & News

By Dr. Jeff Masters
Director of Meteorology, Weather Underground
By Kari Strenfel
Meteorologist, Weather Underground
By Christopher C. Burt
Weather Historian, Weather Underground
August 20, 2014
August 20, 2014
August 20, 2014

Nearby

Snow Depth

Station Depth Elevation
No new snow has been reported.

Earthquake Activity

City Distance Mag. Time & Date
No recent earthquake activity has been reported nearby.
Minimum magnitude displayed is 2.5.

Coastal Water Temperatures

Place Temperature
No Stations Reporting

Nearby Weather Stations